sensor_id;sensor_type;location;lat;lon;timestamp;P1;durP1;ratioP1;P2;durP2;ratioP2
5225;SDS011;2632;51.666;7.146;2023-07-13T00:01:28;8.07;;;2.60;;
5225;SDS011;2632;51.666;7.146;2023-07-13T00:03:57;8.30;;;3.17;;
5225;SDS011;2632;51.666;7.146;2023-07-13T00:06:24;3.57;;;2.50;;
5225;SDS011;2632;51.666;7.146;2023-07-13T00:08:56;9.03;;;2.77;;
5225;SDS011;2632;51.666;7.146;2023-07-13T00:11:25;10.10;;;3.20;;
5225;SDS011;2632;51.666;7.146;2023-07-13T00:13:52;5.73;;;2.50;;
5225;SDS011;2632;51.666;7.146;2023-07-13T00:16:19;4.30;;;2.50;;
5225;SDS011;2632;51.666;7.146;2023-07-13T00:18:47;3.77;;;2.50;;
5225;SDS011;2632;51.666;7.146;2023-07-13T00:21:14;6.57;;;2.27;;
5225;SDS011;2632;51.666;7.146;2023-07-13T00:23:41;5.70;;;2.60;;
5225;SDS011;2632;51.666;7.146;2023-07-13T00:26:09;7.63;;;2.30;;
5225;SDS011;2632;51.666;7.146;2023-07-13T00:28:38;4.57;;;2.53;;
5225;SDS011;2632;51.666;7.146;2023-07-13T00:31:05;3.70;;;2.10;;
5225;SDS011;2632;51.666;7.146;2023-07-13T00:33:34;12.00;;;3.63;;
5225;SDS011;2632;51.666;7.146;2023-07-13T00:36:02;7.30;;;2.60;;
5225;SDS011;2632;51.666;7.146;2023-07-13T00:38:29;3.27;;;2.20;;
5225;SDS011;2632;51.666;7.146;2023-07-13T00:40:56;5.73;;;2.80;;
5225;SDS011;2632;51.666;7.146;2023-07-13T00:43:24;5.57;;;2.53;;
5225;SDS011;2632;51.666;7.146;2023-07-13T00:48:24;7.13;;;2.13;;
5225;SDS011;2632;51.666;7.146;2023-07-13T00:50:53;2.17;;;1.70;;
5225;SDS011;2632;51.666;7.146;2023-07-13T00:53:22;12.07;;;2.30;;
5225;SDS011;2632;51.666;7.146;2023-07-13T00:55:51;5.67;;;2.00;;
5225;SDS011;2632;51.666;7.146;2023-07-13T00:58:18;5.23;;;2.50;;
5225;SDS011;2632;51.666;7.146;2023-07-13T01:00:46;4.47;;;2.20;;
5225;SDS011;2632;51.666;7.146;2023-07-13T01:03:14;2.80;;;1.77;;
5225;SDS011;2632;51.666;7.146;2023-07-13T01:05:41;5.27;;;2.07;;
5225;SDS011;2632;51.666;7.146;2023-07-13T01:08:08;4.33;;;2.17;;
5225;SDS011;2632;51.666;7.146;2023-07-13T01:10:35;4.93;;;2.10;;
5225;SDS011;2632;51.666;7.146;2023-07-13T01:13:06;4.00;;;2.00;;
5225;SDS011;2632;51.666;7.146;2023-07-13T01:15:38;3.20;;;1.53;;
5225;SDS011;2632;51.666;7.146;2023-07-13T01:18:12;3.47;;;1.83;;
5225;SDS011;2632;51.666;7.146;2023-07-13T01:20:41;6.00;;;1.73;;
5225;SDS011;2632;51.666;7.146;2023-07-13T01:23:19;9.73;;;2.50;;
5225;SDS011;2632;51.666;7.146;2023-07-13T01:25:46;2.40;;;1.40;;
5225;SDS011;2632;51.666;7.146;2023-07-13T01:28:12;4.57;;;2.27;;
5225;SDS011;2632;51.666;7.146;2023-07-13T01:30:39;4.03;;;1.67;;
5225;SDS011;2632;51.666;7.146;2023-07-13T01:33:07;8.43;;;1.93;;
5225;SDS011;2632;51.666;7.146;2023-07-13T01:35:35;3.80;;;1.93;;
5225;SDS011;2632;51.666;7.146;2023-07-13T01:38:02;7.00;;;2.57;;
5225;SDS011;2632;51.666;7.146;2023-07-13T01:40:31;3.60;;;1.90;;
5225;SDS011;2632;51.666;7.146;2023-07-13T01:42:59;5.20;;;2.13;;
5225;SDS011;2632;51.666;7.146;2023-07-13T01:45:26;8.00;;;1.90;;
5225;SDS011;2632;51.666;7.146;2023-07-13T01:47:53;9.40;;;1.60;;
5225;SDS011;2632;51.666;7.146;2023-07-13T01:50:20;10.37;;;2.13;;
5225;SDS011;2632;51.666;7.146;2023-07-13T01:52:46;5.23;;;2.00;;
5225;SDS011;2632;51.666;7.146;2023-07-13T01:55:13;6.50;;;1.73;;
5225;SDS011;2632;51.666;7.146;2023-07-13T01:57:40;4.93;;;1.60;;
5225;SDS011;2632;51.666;7.146;2023-07-13T02:00:08;4.80;;;1.90;;
5225;SDS011;2632;51.666;7.146;2023-07-13T02:02:36;4.40;;;1.50;;
5225;SDS011;2632;51.666;7.146;2023-07-13T02:05:03;13.13;;;2.30;;
5225;SDS011;2632;51.666;7.146;2023-07-13T02:07:30;7.47;;;1.87;;
5225;SDS011;2632;51.666;7.146;2023-07-13T02:09:57;6.30;;;1.57;;
5225;SDS011;2632;51.666;7.146;2023-07-13T02:12:23;3.67;;;1.50;;
5225;SDS011;2632;51.666;7.146;2023-07-13T02:14:50;6.70;;;1.67;;
5225;SDS011;2632;51.666;7.146;2023-07-13T02:17:17;9.90;;;2.57;;
5225;SDS011;2632;51.666;7.146;2023-07-13T02:19:43;3.97;;;1.70;;
5225;SDS011;2632;51.666;7.146;2023-07-13T02:22:10;3.73;;;2.00;;
5225;SDS011;2632;51.666;7.146;2023-07-13T02:24:37;7.17;;;1.80;;
5225;SDS011;2632;51.666;7.146;2023-07-13T02:27:04;7.47;;;2.30;;
5225;SDS011;2632;51.666;7.146;2023-07-13T02:29:31;15.27;;;3.83;;
5225;SDS011;2632;51.666;7.146;2023-07-13T02:31:57;6.70;;;2.07;;
5225;SDS011;2632;51.666;7.146;2023-07-13T02:34:24;5.73;;;2.00;;
5225;SDS011;2632;51.666;7.146;2023-07-13T02:36:51;4.90;;;2.07;;
5225;SDS011;2632;51.666;7.146;2023-07-13T02:39:17;3.97;;;1.90;;
5225;SDS011;2632;51.666;7.146;2023-07-13T02:41:44;3.33;;;1.70;;
5225;SDS011;2632;51.666;7.146;2023-07-13T02:44:12;3.70;;;1.90;;
5225;SDS011;2632;51.666;7.146;2023-07-13T02:46:39;6.03;;;1.60;;
5225;SDS011;2632;51.666;7.146;2023-07-13T02:49:06;10.17;;;2.20;;
5225;SDS011;2632;51.666;7.146;2023-07-13T02:51:33;6.13;;;1.77;;
5225;SDS011;2632;51.666;7.146;2023-07-13T02:54:01;3.73;;;1.90;;
5225;SDS011;2632;51.666;7.146;2023-07-13T02:56:28;10.03;;;2.33;;
5225;SDS011;2632;51.666;7.146;2023-07-13T02:58:57;4.60;;;1.43;;
5225;SDS011;2632;51.666;7.146;2023-07-13T03:01:24;3.80;;;1.70;;
5225;SDS011;2632;51.666;7.146;2023-07-13T03:03:51;3.33;;;1.93;;
5225;SDS011;2632;51.666;7.146;2023-07-13T03:06:18;5.53;;;1.90;;
5225;SDS011;2632;51.666;7.146;2023-07-13T03:08:45;4.20;;;2.20;;
5225;SDS011;2632;51.666;7.146;2023-07-13T03:11:13;6.47;;;1.90;;
5225;SDS011;2632;51.666;7.146;2023-07-13T03:13:41;4.97;;;1.73;;
5225;SDS011;2632;51.666;7.146;2023-07-13T03:16:08;3.30;;;1.20;;
5225;SDS011;2632;51.666;7.146;2023-07-13T03:18:36;7.90;;;2.03;;
5225;SDS011;2632;51.666;7.146;2023-07-13T03:21:04;5.53;;;2.03;;
5225;SDS011;2632;51.666;7.146;2023-07-13T03:23:31;3.47;;;1.90;;
5225;SDS011;2632;51.666;7.146;2023-07-13T03:26:05;4.37;;;1.70;;
5225;SDS011;2632;51.666;7.146;2023-07-13T03:28:37;5.40;;;2.13;;
5225;SDS011;2632;51.666;7.146;2023-07-13T03:31:05;2.90;;;1.37;;
5225;SDS011;2632;51.666;7.146;2023-07-13T03:33:33;8.33;;;1.73;;
5225;SDS011;2632;51.666;7.146;2023-07-13T03:36:01;4.40;;;2.33;;
5225;SDS011;2632;51.666;7.146;2023-07-13T03:38:29;6.67;;;2.10;;
5225;SDS011;2632;51.666;7.146;2023-07-13T03:40:56;4.60;;;1.97;;
5225;SDS011;2632;51.666;7.146;2023-07-13T03:43:22;4.60;;;1.70;;
5225;SDS011;2632;51.666;7.146;2023-07-13T03:45:49;4.70;;;2.00;;
5225;SDS011;2632;51.666;7.146;2023-07-13T03:48:16;6.03;;;1.80;;
5225;SDS011;2632;51.666;7.146;2023-07-13T03:50:42;6.57;;;2.17;;
5225;SDS011;2632;51.666;7.146;2023-07-13T03:53:09;5.37;;;1.50;;
5225;SDS011;2632;51.666;7.146;2023-07-13T03:55:36;8.83;;;2.17;;
5225;SDS011;2632;51.666;7.146;2023-07-13T04:00:50;4.93;;;1.87;;
5225;SDS011;2632;51.666;7.146;2023-07-13T04:03:17;3.33;;;1.63;;
5225;SDS011;2632;51.666;7.146;2023-07-13T04:05:43;9.63;;;2.23;;
5225;SDS011;2632;51.666;7.146;2023-07-13T04:08:10;6.57;;;1.70;;
5225;SDS011;2632;51.666;7.146;2023-07-13T04:10:37;4.53;;;2.40;;
5225;SDS011;2632;51.666;7.146;2023-07-13T04:13:04;5.00;;;1.80;;
5225;SDS011;2632;51.666;7.146;2023-07-13T04:15:32;6.90;;;1.83;;
5225;SDS011;2632;51.666;7.146;2023-07-13T04:17:59;6.20;;;2.10;;
5225;SDS011;2632;51.666;7.146;2023-07-13T04:20:25;6.30;;;2.20;;
5225;SDS011;2632;51.666;7.146;2023-07-13T04:22:52;4.57;;;1.90;;
5225;SDS011;2632;51.666;7.146;2023-07-13T04:25:20;5.43;;;1.70;;
5225;SDS011;2632;51.666;7.146;2023-07-13T04:27:49;5.93;;;2.20;;
5225;SDS011;2632;51.666;7.146;2023-07-13T04:30:16;4.30;;;1.90;;
5225;SDS011;2632;51.666;7.146;2023-07-13T04:32:42;3.17;;;1.70;;
5225;SDS011;2632;51.666;7.146;2023-07-13T04:35:09;5.10;;;2.00;;
5225;SDS011;2632;51.666;7.146;2023-07-13T04:37:36;4.17;;;1.90;;
5225;SDS011;2632;51.666;7.146;2023-07-13T04:40:03;3.23;;;1.90;;
5225;SDS011;2632;51.666;7.146;2023-07-13T04:42:30;6.80;;;2.13;;
5225;SDS011;2632;51.666;7.146;2023-07-13T04:44:56;7.00;;;2.00;;
5225;SDS011;2632;51.666;7.146;2023-07-13T04:47:23;7.83;;;1.80;;
5225;SDS011;2632;51.666;7.146;2023-07-13T04:49:49;5.00;;;1.90;;
5225;SDS011;2632;51.666;7.146;2023-07-13T04:52:16;4.20;;;2.10;;
5225;SDS011;2632;51.666;7.146;2023-07-13T04:54:43;10.37;;;2.10;;
5225;SDS011;2632;51.666;7.146;2023-07-13T04:57:09;10.63;;;2.40;;
5225;SDS011;2632;51.666;7.146;2023-07-13T04:59:36;6.07;;;2.50;;
5225;SDS011;2632;51.666;7.146;2023-07-13T05:02:03;8.07;;;2.60;;
5225;SDS011;2632;51.666;7.146;2023-07-13T05:04:30;8.00;;;2.10;;
5225;SDS011;2632;51.666;7.146;2023-07-13T05:06:56;6.40;;;2.27;;
5225;SDS011;2632;51.666;7.146;2023-07-13T05:09:23;7.00;;;2.17;;
5225;SDS011;2632;51.666;7.146;2023-07-13T05:11:50;8.97;;;2.50;;
5225;SDS011;2632;51.666;7.146;2023-07-13T05:14:17;6.43;;;2.47;;
5225;SDS011;2632;51.666;7.146;2023-07-13T05:16:43;4.60;;;2.17;;
5225;SDS011;2632;51.666;7.146;2023-07-13T05:19:11;8.73;;;2.30;;
5225;SDS011;2632;51.666;7.146;2023-07-13T05:21:38;7.70;;;2.20;;
5225;SDS011;2632;51.666;7.146;2023-07-13T05:24:05;7.83;;;2.23;;
5225;SDS011;2632;51.666;7.146;2023-07-13T05:26:48;7.33;;;2.50;;
5225;SDS011;2632;51.666;7.146;2023-07-13T05:29:21;6.73;;;2.37;;
5225;SDS011;2632;51.666;7.146;2023-07-13T05:31:48;6.10;;;2.40;;
5225;SDS011;2632;51.666;7.146;2023-07-13T05:34:15;8.30;;;2.60;;
5225;SDS011;2632;51.666;7.146;2023-07-13T05:36:42;10.90;;;3.17;;
5225;SDS011;2632;51.666;7.146;2023-07-13T05:39:09;12.37;;;3.70;;
5225;SDS011;2632;51.666;7.146;2023-07-13T05:41:35;9.40;;;3.00;;
5225;SDS011;2632;51.666;7.146;2023-07-13T05:44:02;13.10;;;3.27;;
5225;SDS011;2632;51.666;7.146;2023-07-13T05:46:29;6.07;;;3.17;;
5225;SDS011;2632;51.666;7.146;2023-07-13T05:48:57;6.60;;;3.40;;
5225;SDS011;2632;51.666;7.146;2023-07-13T05:51:23;11.40;;;3.30;;
5225;SDS011;2632;51.666;7.146;2023-07-13T05:53:50;11.50;;;3.50;;
5225;SDS011;2632;51.666;7.146;2023-07-13T05:56:17;6.40;;;3.50;;
5225;SDS011;2632;51.666;7.146;2023-07-13T05:58:43;7.33;;;3.97;;
5225;SDS011;2632;51.666;7.146;2023-07-13T06:01:12;8.27;;;3.40;;
5225;SDS011;2632;51.666;7.146;2023-07-13T06:03:41;12.60;;;3.33;;
5225;SDS011;2632;51.666;7.146;2023-07-13T06:06:08;10.83;;;3.87;;
5225;SDS011;2632;51.666;7.146;2023-07-13T06:08:36;11.77;;;3.23;;
5225;SDS011;2632;51.666;7.146;2023-07-13T06:11:13;9.87;;;3.87;;
5225;SDS011;2632;51.666;7.146;2023-07-13T06:13:42;12.27;;;3.80;;
5225;SDS011;2632;51.666;7.146;2023-07-13T06:16:10;8.70;;;3.60;;
5225;SDS011;2632;51.666;7.146;2023-07-13T06:18:37;14.60;;;4.00;;
5225;SDS011;2632;51.666;7.146;2023-07-13T06:21:09;13.57;;;4.80;;
5225;SDS011;2632;51.666;7.146;2023-07-13T06:23:39;12.47;;;4.50;;
5225;SDS011;2632;51.666;7.146;2023-07-13T06:26:06;11.40;;;5.10;;
5225;SDS011;2632;51.666;7.146;2023-07-13T06:28:34;12.10;;;6.20;;
5225;SDS011;2632;51.666;7.146;2023-07-13T06:31:01;21.70;;;8.30;;
5225;SDS011;2632;51.666;7.146;2023-07-13T06:33:30;14.63;;;5.70;;
5225;SDS011;2632;51.666;7.146;2023-07-13T06:35:57;15.90;;;5.63;;
5225;SDS011;2632;51.666;7.146;2023-07-13T06:38:24;11.83;;;5.50;;
5225;SDS011;2632;51.666;7.146;2023-07-13T06:40:50;13.53;;;6.90;;
5225;SDS011;2632;51.666;7.146;2023-07-13T06:43:17;20.23;;;7.17;;
5225;SDS011;2632;51.666;7.146;2023-07-13T06:45:46;15.07;;;6.23;;
5225;SDS011;2632;51.666;7.146;2023-07-13T06:48:16;20.97;;;7.50;;
5225;SDS011;2632;51.666;7.146;2023-07-13T06:50:44;15.03;;;5.97;;
5225;SDS011;2632;51.666;7.146;2023-07-13T06:53:12;13.47;;;7.00;;
5225;SDS011;2632;51.666;7.146;2023-07-13T06:55:39;14.63;;;8.53;;
5225;SDS011;2632;51.666;7.146;2023-07-13T06:58:06;16.23;;;8.50;;
5225;SDS011;2632;51.666;7.146;2023-07-13T07:00:33;12.80;;;6.87;;
5225;SDS011;2632;51.666;7.146;2023-07-13T07:02:59;18.13;;;7.57;;
5225;SDS011;2632;51.666;7.146;2023-07-13T07:05:26;21.23;;;8.13;;
5225;SDS011;2632;51.666;7.146;2023-07-13T07:07:53;12.07;;;6.37;;
5225;SDS011;2632;51.666;7.146;2023-07-13T07:10:21;11.93;;;8.00;;
5225;SDS011;2632;51.666;7.146;2023-07-13T07:12:48;15.10;;;7.57;;
5225;SDS011;2632;51.666;7.146;2023-07-13T07:15:15;21.30;;;9.27;;
5225;SDS011;2632;51.666;7.146;2023-07-13T07:17:43;13.27;;;8.60;;
5225;SDS011;2632;51.666;7.146;2023-07-13T07:20:10;22.13;;;9.90;;
5225;SDS011;2632;51.666;7.146;2023-07-13T07:22:37;17.20;;;9.00;;
5225;SDS011;2632;51.666;7.146;2023-07-13T07:25:04;16.80;;;8.83;;
5225;SDS011;2632;51.666;7.146;2023-07-13T07:27:30;18.00;;;8.40;;
5225;SDS011;2632;51.666;7.146;2023-07-13T07:30:00;17.47;;;8.67;;
5225;SDS011;2632;51.666;7.146;2023-07-13T07:32:30;18.37;;;8.63;;
5225;SDS011;2632;51.666;7.146;2023-07-13T07:35:01;20.00;;;7.93;;
5225;SDS011;2632;51.666;7.146;2023-07-13T07:37:28;15.57;;;7.97;;
5225;SDS011;2632;51.666;7.146;2023-07-13T07:39:58;16.40;;;7.80;;
5225;SDS011;2632;51.666;7.146;2023-07-13T07:42:28;20.43;;;8.30;;
5225;SDS011;2632;51.666;7.146;2023-07-13T07:44:55;17.90;;;8.57;;
5225;SDS011;2632;51.666;7.146;2023-07-13T07:47:22;19.63;;;9.53;;
5225;SDS011;2632;51.666;7.146;2023-07-13T07:49:50;15.00;;;7.50;;
5225;SDS011;2632;51.666;7.146;2023-07-13T07:52:17;12.57;;;8.23;;
5225;SDS011;2632;51.666;7.146;2023-07-13T07:54:44;9.73;;;6.60;;
5225;SDS011;2632;51.666;7.146;2023-07-13T07:57:13;12.03;;;6.73;;
5225;SDS011;2632;51.666;7.146;2023-07-13T07:59:43;15.27;;;7.63;;
5225;SDS011;2632;51.666;7.146;2023-07-13T08:02:12;18.97;;;7.20;;
5225;SDS011;2632;51.666;7.146;2023-07-13T08:04:59;15.73;;;8.03;;
5225;SDS011;2632;51.666;7.146;2023-07-13T08:07:30;18.30;;;8.57;;
5225;SDS011;2632;51.666;7.146;2023-07-13T08:09:57;15.10;;;9.70;;
5225;SDS011;2632;51.666;7.146;2023-07-13T08:12:24;15.30;;;9.13;;
5225;SDS011;2632;51.666;7.146;2023-07-13T08:14:53;25.47;;;9.83;;
5225;SDS011;2632;51.666;7.146;2023-07-13T08:17:23;15.67;;;8.80;;
5225;SDS011;2632;51.666;7.146;2023-07-13T08:19:51;18.80;;;10.47;;
5225;SDS011;2632;51.666;7.146;2023-07-13T08:22:17;17.37;;;10.60;;
5225;SDS011;2632;51.666;7.146;2023-07-13T08:24:44;19.30;;;11.17;;
5225;SDS011;2632;51.666;7.146;2023-07-13T08:27:11;17.20;;;10.90;;
5225;SDS011;2632;51.666;7.146;2023-07-13T08:29:38;18.23;;;11.20;;
5225;SDS011;2632;51.666;7.146;2023-07-13T08:32:06;15.53;;;10.33;;
5225;SDS011;2632;51.666;7.146;2023-07-13T08:34:36;15.13;;;10.00;;
5225;SDS011;2632;51.666;7.146;2023-07-13T08:37:03;16.57;;;8.50;;
5225;SDS011;2632;51.666;7.146;2023-07-13T08:39:30;12.00;;;8.80;;
5225;SDS011;2632;51.666;7.146;2023-07-13T08:42:01;15.67;;;7.90;;
5225;SDS011;2632;51.666;7.146;2023-07-13T08:44:45;14.97;;;8.07;;
5225;SDS011;2632;51.666;7.146;2023-07-13T08:47:16;11.87;;;7.13;;
5225;SDS011;2632;51.666;7.146;2023-07-13T08:49:44;10.13;;;7.27;;
5225;SDS011;2632;51.666;7.146;2023-07-13T08:54:51;15.40;;;6.43;;
5225;SDS011;2632;51.666;7.146;2023-07-13T08:57:21;9.07;;;5.27;;
5225;SDS011;2632;51.666;7.146;2023-07-13T08:59:56;13.57;;;5.70;;
5225;SDS011;2632;51.666;7.146;2023-07-13T09:02:25;12.30;;;5.50;;
5225;SDS011;2632;51.666;7.146;2023-07-13T09:04:55;8.03;;;5.30;;
5225;SDS011;2632;51.666;7.146;2023-07-13T09:10:45;7.03;;;4.20;;
5225;SDS011;2632;51.666;7.146;2023-07-13T09:13:30;11.67;;;4.50;;
5225;SDS011;2632;51.666;7.146;2023-07-13T09:16:05;7.70;;;4.40;;
5225;SDS011;2632;51.666;7.146;2023-07-13T09:18:52;7.50;;;4.73;;
5225;SDS011;2632;51.666;7.146;2023-07-13T09:21:23;11.00;;;5.60;;
5225;SDS011;2632;51.666;7.146;2023-07-13T09:23:56;8.13;;;4.30;;
5225;SDS011;2632;51.666;7.146;2023-07-13T09:26:28;9.13;;;4.27;;
5225;SDS011;2632;51.666;7.146;2023-07-13T09:28:59;11.83;;;6.10;;
5225;SDS011;2632;51.666;7.146;2023-07-13T09:31:38;10.50;;;5.43;;
5225;SDS011;2632;51.666;7.146;2023-07-13T09:34:10;10.40;;;6.90;;
5225;SDS011;2632;51.666;7.146;2023-07-13T09:36:38;17.50;;;9.47;;
5225;SDS011;2632;51.666;7.146;2023-07-13T09:44:34;14.23;;;9.13;;
5225;SDS011;2632;51.666;7.146;2023-07-13T09:47:02;11.27;;;8.30;;
5225;SDS011;2632;51.666;7.146;2023-07-13T09:49:34;12.27;;;8.00;;
5225;SDS011;2632;51.666;7.146;2023-07-13T09:52:04;11.10;;;7.93;;
5225;SDS011;2632;51.666;7.146;2023-07-13T09:54:33;13.90;;;9.33;;
5225;SDS011;2632;51.666;7.146;2023-07-13T09:57:02;13.00;;;9.57;;
5225;SDS011;2632;51.666;7.146;2023-07-13T09:59:32;15.43;;;9.77;;
5225;SDS011;2632;51.666;7.146;2023-07-13T10:02:00;12.67;;;9.67;;
5225;SDS011;2632;51.666;7.146;2023-07-13T10:04:31;15.70;;;9.67;;
5225;SDS011;2632;51.666;7.146;2023-07-13T10:07:11;10.57;;;9.17;;
5225;SDS011;2632;51.666;7.146;2023-07-13T10:09:55;14.00;;;9.57;;
5225;SDS011;2632;51.666;7.146;2023-07-13T10:12:23;11.33;;;8.90;;
5225;SDS011;2632;51.666;7.146;2023-07-13T10:14:52;12.87;;;8.60;;
5225;SDS011;2632;51.666;7.146;2023-07-13T10:17:37;12.50;;;6.83;;
5225;SDS011;2632;51.666;7.146;2023-07-13T10:20:06;9.43;;;4.83;;
5225;SDS011;2632;51.666;7.146;2023-07-13T10:25:17;7.57;;;3.90;;
5225;SDS011;2632;51.666;7.146;2023-07-13T10:27:46;6.73;;;3.00;;
5225;SDS011;2632;51.666;7.146;2023-07-13T10:30:20;5.93;;;3.40;;
5225;SDS011;2632;51.666;7.146;2023-07-13T10:32:51;12.63;;;3.27;;
5225;SDS011;2632;51.666;7.146;2023-07-13T10:35:19;6.73;;;3.03;;
5225;SDS011;2632;51.666;7.146;2023-07-13T10:40:34;4.03;;;3.20;;
5225;SDS011;2632;51.666;7.146;2023-07-13T10:43:16;11.50;;;3.50;;
5225;SDS011;2632;51.666;7.146;2023-07-13T10:45:46;5.10;;;3.03;;
5225;SDS011;2632;51.666;7.146;2023-07-13T10:48:16;6.07;;;3.10;;
5225;SDS011;2632;51.666;7.146;2023-07-13T10:50:45;5.03;;;2.90;;
5225;SDS011;2632;51.666;7.146;2023-07-13T10:53:30;5.27;;;2.70;;
5225;SDS011;2632;51.666;7.146;2023-07-13T10:56:32;4.30;;;2.43;;
5225;SDS011;2632;51.666;7.146;2023-07-13T10:59:18;6.73;;;4.30;;
5225;SDS011;2632;51.666;7.146;2023-07-13T11:04:25;5.13;;;3.20;;
5225;SDS011;2632;51.666;7.146;2023-07-13T11:06:59;9.63;;;3.23;;
5225;SDS011;2632;51.666;7.146;2023-07-13T11:09:57;4.00;;;3.20;;
5225;SDS011;2632;51.666;7.146;2023-07-13T11:12:26;5.80;;;4.33;;
5225;SDS011;2632;51.666;7.146;2023-07-13T11:20:31;5.63;;;3.60;;
5225;SDS011;2632;51.666;7.146;2023-07-13T11:25:39;7.93;;;3.10;;
5225;SDS011;2632;51.666;7.146;2023-07-13T11:33:16;6.30;;;2.70;;
5225;SDS011;2632;51.666;7.146;2023-07-13T11:38:23;7.37;;;2.90;;
5225;SDS011;2632;51.666;7.146;2023-07-13T11:40:54;3.50;;;2.53;;
5225;SDS011;2632;51.666;7.146;2023-07-13T11:43:22;4.77;;;2.83;;
5225;SDS011;2632;51.666;7.146;2023-07-13T11:45:52;4.43;;;2.43;;
5225;SDS011;2632;51.666;7.146;2023-07-13T11:48:28;8.17;;;2.57;;
5225;SDS011;2632;51.666;7.146;2023-07-13T11:50:59;5.57;;;2.83;;
5225;SDS011;2632;51.666;7.146;2023-07-13T11:53:29;2.83;;;2.30;;
5225;SDS011;2632;51.666;7.146;2023-07-13T11:56:13;7.30;;;2.37;;
5225;SDS011;2632;51.666;7.146;2023-07-13T11:58:40;7.00;;;2.23;;
5225;SDS011;2632;51.666;7.146;2023-07-13T12:01:21;4.47;;;2.30;;
5225;SDS011;2632;51.666;7.146;2023-07-13T12:03:50;7.80;;;2.13;;
5225;SDS011;2632;51.666;7.146;2023-07-13T12:06:29;4.80;;;2.53;;
5225;SDS011;2632;51.666;7.146;2023-07-13T12:08:56;4.43;;;1.90;;
5225;SDS011;2632;51.666;7.146;2023-07-13T12:11:25;7.23;;;2.00;;
5225;SDS011;2632;51.666;7.146;2023-07-13T12:13:52;8.03;;;2.83;;
5225;SDS011;2632;51.666;7.146;2023-07-13T12:16:29;4.03;;;2.10;;
5225;SDS011;2632;51.666;7.146;2023-07-13T12:18:59;7.53;;;2.10;;
5225;SDS011;2632;51.666;7.146;2023-07-13T12:21:37;6.30;;;1.90;;
5225;SDS011;2632;51.666;7.146;2023-07-13T12:24:11;3.43;;;2.00;;
5225;SDS011;2632;51.666;7.146;2023-07-13T12:26:41;5.60;;;2.57;;
5225;SDS011;2632;51.666;7.146;2023-07-13T12:29:07;4.57;;;2.03;;
5225;SDS011;2632;51.666;7.146;2023-07-13T12:31:46;3.63;;;1.77;;
5225;SDS011;2632;51.666;7.146;2023-07-13T12:36:46;3.00;;;2.00;;
5225;SDS011;2632;51.666;7.146;2023-07-13T12:39:20;5.90;;;2.07;;
5225;SDS011;2632;51.666;7.146;2023-07-13T12:41:52;4.57;;;2.70;;
5225;SDS011;2632;51.666;7.146;2023-07-13T12:44:39;3.50;;;2.20;;
5225;SDS011;2632;51.666;7.146;2023-07-13T12:47:14;12.83;;;2.97;;
5225;SDS011;2632;51.666;7.146;2023-07-13T12:49:43;3.60;;;2.30;;
5225;SDS011;2632;51.666;7.146;2023-07-13T12:52:17;3.43;;;2.10;;
5225;SDS011;2632;51.666;7.146;2023-07-13T12:54:57;4.80;;;2.53;;
5225;SDS011;2632;51.666;7.146;2023-07-13T12:57:34;5.57;;;2.47;;
5225;SDS011;2632;51.666;7.146;2023-07-13T13:00:53;5.00;;;2.20;;
5225;SDS011;2632;51.666;7.146;2023-07-13T13:03:06;6.07;;;2.20;;
5225;SDS011;2632;51.666;7.146;2023-07-13T13:06:02;8.07;;;3.40;;
5225;SDS011;2632;51.666;7.146;2023-07-13T13:08:34;3.83;;;3.03;;
5225;SDS011;2632;51.666;7.146;2023-07-13T13:11:02;7.77;;;4.83;;
5225;SDS011;2632;51.666;7.146;2023-07-13T13:13:29;7.23;;;4.23;;
5225;SDS011;2632;51.666;7.146;2023-07-13T13:15:56;6.87;;;4.97;;
5225;SDS011;2632;51.666;7.146;2023-07-13T13:18:27;9.43;;;4.90;;
5225;SDS011;2632;51.666;7.146;2023-07-13T13:20:55;7.17;;;5.20;;
5225;SDS011;2632;51.666;7.146;2023-07-13T13:23:22;9.20;;;5.10;;
5225;SDS011;2632;51.666;7.146;2023-07-13T13:25:50;5.80;;;4.07;;
5225;SDS011;2632;51.666;7.146;2023-07-13T13:28:18;4.93;;;3.93;;
5225;SDS011;2632;51.666;7.146;2023-07-13T13:30:46;4.50;;;4.00;;
5225;SDS011;2632;51.666;7.146;2023-07-13T13:33:15;4.90;;;3.90;;
5225;SDS011;2632;51.666;7.146;2023-07-13T13:35:43;5.00;;;3.30;;
5225;SDS011;2632;51.666;7.146;2023-07-13T13:38:11;6.33;;;3.90;;
5225;SDS011;2632;51.666;7.146;2023-07-13T13:40:41;9.20;;;3.47;;
5225;SDS011;2632;51.666;7.146;2023-07-13T13:43:18;3.60;;;3.30;;
5225;SDS011;2632;51.666;7.146;2023-07-13T13:45:52;4.00;;;3.30;;
5225;SDS011;2632;51.666;7.146;2023-07-13T13:48:24;5.63;;;4.00;;
5225;SDS011;2632;51.666;7.146;2023-07-13T13:50:57;6.27;;;4.73;;
5225;SDS011;2632;51.666;7.146;2023-07-13T13:53:26;5.40;;;3.43;;
5225;SDS011;2632;51.666;7.146;2023-07-13T13:55:54;5.10;;;3.40;;
5225;SDS011;2632;51.666;7.146;2023-07-13T13:58:20;4.47;;;3.30;;
5225;SDS011;2632;51.666;7.146;2023-07-13T14:00:47;4.90;;;3.23;;
5225;SDS011;2632;51.666;7.146;2023-07-13T14:03:18;6.70;;;3.43;;
5225;SDS011;2632;51.666;7.146;2023-07-13T14:05:47;5.03;;;3.77;;
5225;SDS011;2632;51.666;7.146;2023-07-13T14:08:15;6.33;;;3.80;;
5225;SDS011;2632;51.666;7.146;2023-07-13T14:10:48;5.43;;;3.23;;
5225;SDS011;2632;51.666;7.146;2023-07-13T14:13:17;4.90;;;3.40;;
5225;SDS011;2632;51.666;7.146;2023-07-13T14:15:47;4.37;;;2.90;;
5225;SDS011;2632;51.666;7.146;2023-07-13T14:18:14;6.33;;;3.40;;
5225;SDS011;2632;51.666;7.146;2023-07-13T14:20:45;7.30;;;3.70;;
5225;SDS011;2632;51.666;7.146;2023-07-13T14:23:13;5.43;;;3.67;;
5225;SDS011;2632;51.666;7.146;2023-07-13T14:25:45;5.83;;;3.97;;
5225;SDS011;2632;51.666;7.146;2023-07-13T14:30:52;5.07;;;3.30;;
5225;SDS011;2632;51.666;7.146;2023-07-13T14:33:21;5.50;;;3.70;;
5225;SDS011;2632;51.666;7.146;2023-07-13T14:35:49;4.03;;;3.60;;
5225;SDS011;2632;51.666;7.146;2023-07-13T14:38:18;7.70;;;3.97;;
5225;SDS011;2632;51.666;7.146;2023-07-13T14:40:46;6.93;;;4.20;;
5225;SDS011;2632;51.666;7.146;2023-07-13T14:43:16;8.73;;;4.53;;
5225;SDS011;2632;51.666;7.146;2023-07-13T14:45:44;7.27;;;4.43;;
5225;SDS011;2632;51.666;7.146;2023-07-13T14:48:24;4.57;;;4.17;;
5225;SDS011;2632;51.666;7.146;2023-07-13T14:50:54;4.47;;;3.43;;
5225;SDS011;2632;51.666;7.146;2023-07-13T14:53:24;7.77;;;4.97;;
5225;SDS011;2632;51.666;7.146;2023-07-13T14:55:55;4.50;;;3.70;;
5225;SDS011;2632;51.666;7.146;2023-07-13T14:58:22;6.20;;;4.37;;
5225;SDS011;2632;51.666;7.146;2023-07-13T15:00:49;5.93;;;3.77;;
5225;SDS011;2632;51.666;7.146;2023-07-13T15:03:20;8.30;;;4.60;;
5225;SDS011;2632;51.666;7.146;2023-07-13T15:05:49;6.47;;;4.50;;
5225;SDS011;2632;51.666;7.146;2023-07-13T15:08:16;6.73;;;3.90;;
5225;SDS011;2632;51.666;7.146;2023-07-13T15:10:43;8.40;;;3.87;;
5225;SDS011;2632;51.666;7.146;2023-07-13T15:13:17;5.23;;;3.50;;
5225;SDS011;2632;51.666;7.146;2023-07-13T15:15:47;5.70;;;3.60;;
5225;SDS011;2632;51.666;7.146;2023-07-13T15:18:16;7.23;;;3.80;;
5225;SDS011;2632;51.666;7.146;2023-07-13T15:20:45;5.97;;;4.27;;
5225;SDS011;2632;51.666;7.146;2023-07-13T15:23:14;4.57;;;3.57;;
5225;SDS011;2632;51.666;7.146;2023-07-13T15:25:42;4.60;;;3.97;;
5225;SDS011;2632;51.666;7.146;2023-07-13T15:28:10;4.57;;;4.17;;
5225;SDS011;2632;51.666;7.146;2023-07-13T15:30:42;6.87;;;3.53;;
5225;SDS011;2632;51.666;7.146;2023-07-13T15:33:12;3.73;;;3.43;;
5225;SDS011;2632;51.666;7.146;2023-07-13T15:35:39;4.60;;;4.13;;
5225;SDS011;2632;51.666;7.146;2023-07-13T15:38:12;6.37;;;4.53;;
5225;SDS011;2632;51.666;7.146;2023-07-13T15:40:59;7.00;;;4.63;;
5225;SDS011;2632;51.666;7.146;2023-07-13T15:43:26;7.33;;;4.13;;
5225;SDS011;2632;51.666;7.146;2023-07-13T15:45:52;5.23;;;3.77;;
5225;SDS011;2632;51.666;7.146;2023-07-13T15:48:21;9.70;;;4.67;;
5225;SDS011;2632;51.666;7.146;2023-07-13T15:50:51;4.73;;;4.23;;
5225;SDS011;2632;51.666;7.146;2023-07-13T15:53:23;6.80;;;4.17;;
5225;SDS011;2632;51.666;7.146;2023-07-13T15:55:54;8.70;;;5.00;;
5225;SDS011;2632;51.666;7.146;2023-07-13T15:58:21;8.07;;;4.60;;
5225;SDS011;2632;51.666;7.146;2023-07-13T16:00:48;6.77;;;4.83;;
5225;SDS011;2632;51.666;7.146;2023-07-13T16:03:19;6.63;;;5.10;;
5225;SDS011;2632;51.666;7.146;2023-07-13T16:05:47;6.80;;;5.00;;
5225;SDS011;2632;51.666;7.146;2023-07-13T16:08:19;6.17;;;4.63;;
5225;SDS011;2632;51.666;7.146;2023-07-13T16:10:53;10.03;;;5.40;;